AIC161 VIDP-EGLL
Flight info
| Callsign | AIC161 |
|---|---|
| Flight time | N/A |
| Altitude | 36000 |
| Route | DUDUM7E DUDUM Q2 NIKOT R462 UUD J61 LAXOM L639 RASKI N881 SETSI/N0497F380 N881 KIPOL L444 TOLDA M628 TULBU G652 TOKRA DCT ALROK DCT BOSOB DCT ITRUX Y511 PMA Z712 SIGRO/N0493F400 Z712 WEJ L677 CVO L617 TANSA UL617 SIT DCT TSL UM987 ATFIR N133 LOMOS DCT SAT DCT PITOK DCT SLC DCT MAKAL DCT HDO DCT KOSIX L986 SAS L980 LOGAN |
| Aircraft | A359/H-SDE2E3GHIJ3J4J5LM1ORWXY/LB1D1 |
Departure
| Time | 2026-04-28 06:35 |
|---|---|
| Airport | Indira Gandhi International Airport (VIDP) |
Arrival
| Time | N/A |
|---|---|
| Airport | London Heathrow Airport (EGLL) |
| Time | Latitude | Longitude | Altitude | Speed | Heading |
|---|---|---|---|---|---|
| 2026-04-28 06:12 | 28.55414 | 77.08072 | 757 ft | 0 kts | 327° |
| 2026-04-28 06:24 | 28.55397 | 77.08086 | 752 ft | 4 kts | 310° |
| 2026-04-28 06:24 | 28.55386 | 77.08111 | 754 ft | 4 kts | 274° |
| 2026-04-28 06:24 | 28.55390 | 77.08140 | 752 ft | 4 kts | 240° |
| 2026-04-28 06:24 | 28.55395 | 77.08149 | 752 ft | 1 kts | 238° |
| 2026-04-28 06:25 | 28.55395 | 77.08150 | 752 ft | 0 kts | 238° |
| 2026-04-28 06:29 | 28.55394 | 77.08147 | 752 ft | 3 kts | 238° |
| 2026-04-28 06:29 | 28.55342 | 77.08052 | 752 ft | 14 kts | 238° |
| 2026-04-28 06:29 | 28.55304 | 77.07980 | 754 ft | 8 kts | 239° |
| 2026-04-28 06:29 | 28.55284 | 77.07944 | 754 ft | 8 kts | 239° |
| 2026-04-28 06:30 | 28.55253 | 77.07865 | 754 ft | 8 kts | 259° |
| 2026-04-28 06:30 | 28.55257 | 77.07821 | 753 ft | 8 kts | 282° |
| 2026-04-28 06:30 | 28.55271 | 77.07754 | 754 ft | 9 kts | 284° |
| 2026-04-28 06:30 | 28.55272 | 77.07684 | 752 ft | 9 kts | 247° |
| 2026-04-28 06:31 | 28.55227 | 77.07648 | 752 ft | 8 kts | 197° |
| 2026-04-28 06:31 | 28.55184 | 77.07614 | 752 ft | 7 kts | 241° |
| 2026-04-28 06:31 | 28.55177 | 77.07557 | 753 ft | 7 kts | 279° |
| 2026-04-28 06:31 | 28.55195 | 77.07477 | 756 ft | 13 kts | 284° |
| 2026-04-28 06:32 | 28.55219 | 77.07374 | 753 ft | 14 kts | 284° |
| 2026-04-28 06:32 | 28.55243 | 77.07266 | 755 ft | 14 kts | 284° |
| 2026-04-28 06:32 | 28.55269 | 77.07154 | 754 ft | 15 kts | 284° |
| 2026-04-28 06:32 | 28.55284 | 77.07037 | 753 ft | 14 kts | 254° |
| 2026-04-28 06:33 | 28.55208 | 77.06982 | 755 ft | 14 kts | 196° |
| 2026-04-28 06:33 | 28.55112 | 77.06955 | 751 ft | 15 kts | 193° |
| 2026-04-28 06:33 | 28.55010 | 77.06930 | 751 ft | 11 kts | 187° |
| 2026-04-28 06:33 | 28.54987 | 77.06958 | 751 ft | 5 kts | 122° |
| 2026-04-28 06:34 | 28.54966 | 77.07022 | 754 ft | 13 kts | 103° |
| 2026-04-28 06:34 | 28.54927 | 77.07217 | 752 ft | 50 kts | 104° |
| 2026-04-28 06:34 | 28.54802 | 77.07806 | 758 ft | 102 kts | 104° |
| 2026-04-28 06:34 | 28.54595 | 77.08770 | 756 ft | 147 kts | 104° |
| 2026-04-28 06:35 | 28.54313 | 77.10049 | 843 ft | 178 kts | 101° |
| 2026-04-28 06:35 | 28.54004 | 77.11425 | 1313 ft | 184 kts | 103° |
| 2026-04-28 06:35 | 28.53852 | 77.12886 | 1731 ft | 189 kts | 73° |
| 2026-04-28 06:35 | 28.54360 | 77.14286 | 2162 ft | 203 kts | 65° |
| 2026-04-28 06:36 | 28.54594 | 77.15969 | 2428 ft | 226 kts | 88° |
| 2026-04-28 06:36 | 28.54060 | 77.17689 | 2794 ft | 241 kts | 127° |
| 2026-04-28 06:36 | 28.52660 | 77.18743 | 3127 ft | 252 kts | 166° |
| 2026-04-28 06:36 | 28.50886 | 77.18681 | 3300 ft | 266 kts | 202° |
| 2026-04-28 06:37 | 28.49386 | 77.17454 | 3560 ft | 270 kts | 233° |
| 2026-04-28 06:37 | 28.48186 | 77.15790 | 4065 ft | 274 kts | 233° |
| 2026-04-28 06:37 | 28.46893 | 77.14176 | 4616 ft | 280 kts | 229° |
| 2026-04-28 06:37 | 28.45481 | 77.12627 | 5157 ft | 283 kts | 226° |
| 2026-04-28 06:38 | 28.44010 | 77.11137 | 5787 ft | 283 kts | 224° |
| 2026-04-28 06:38 | 28.42513 | 77.09683 | 6389 ft | 282 kts | 222° |
| 2026-04-28 06:38 | 28.41033 | 77.08281 | 7000 ft | 280 kts | 223° |
| 2026-04-28 06:38 | 28.39516 | 77.06855 | 7610 ft | 280 kts | 221° |
| 2026-04-28 06:39 | 28.38031 | 77.05472 | 8211 ft | 279 kts | 221° |
| 2026-04-28 06:39 | 28.36532 | 77.04082 | 8871 ft | 279 kts | 221° |
| 2026-04-28 06:39 | 28.35029 | 77.02690 | 9546 ft | 279 kts | 221° |
| 2026-04-28 06:39 | 28.33518 | 77.01294 | 10061 ft | 285 kts | 221° |
| 2026-04-28 06:40 | 28.31942 | 76.99836 | 10296 ft | 300 kts | 221° |
| 2026-04-28 06:40 | 28.30282 | 76.98302 | 10508 ft | 315 kts | 221° |
| 2026-04-28 06:40 | 28.28544 | 76.96697 | 10726 ft | 329 kts | 221° |
| 2026-04-28 06:40 | 28.26729 | 76.95024 | 10956 ft | 342 kts | 221° |
| 2026-04-28 06:41 | 28.24861 | 76.93305 | 11318 ft | 349 kts | 221° |
| 2026-04-28 06:41 | 28.22966 | 76.91562 | 11821 ft | 351 kts | 221° |
| 2026-04-28 06:41 | 28.21070 | 76.89819 | 12398 ft | 352 kts | 221° |
| 2026-04-28 06:41 | 28.19162 | 76.88066 | 12930 ft | 354 kts | 222° |
| 2026-04-28 06:42 | 28.17248 | 76.86307 | 13458 ft | 355 kts | 222° |
| 2026-04-28 06:42 | 28.15321 | 76.84536 | 13876 ft | 359 kts | 222° |
| 2026-04-28 06:42 | 28.13373 | 76.82746 | 14317 ft | 362 kts | 222° |
| 2026-04-28 06:42 | 28.11409 | 76.80943 | 14757 ft | 364 kts | 222° |
| 2026-04-28 06:43 | 28.09435 | 76.79133 | 15192 ft | 366 kts | 222° |
| 2026-04-28 06:43 | 28.07448 | 76.77310 | 15663 ft | 369 kts | 222° |
| 2026-04-28 06:43 | 28.05449 | 76.75479 | 16091 ft | 371 kts | 222° |
| 2026-04-28 06:43 | 28.03435 | 76.73632 | 16523 ft | 374 kts | 222° |
| 2026-04-28 06:44 | 28.01407 | 76.71776 | 16970 ft | 376 kts | 222° |
| 2026-04-28 06:44 | 27.99364 | 76.69906 | 17364 ft | 380 kts | 222° |
| 2026-04-28 06:44 | 27.97301 | 76.68018 | 17777 ft | 383 kts | 222° |
| 2026-04-28 06:44 | 27.95223 | 76.66119 | 18191 ft | 385 kts | 222° |
| 2026-04-28 06:45 | 27.93134 | 76.64209 | 18549 ft | 388 kts | 222° |
| 2026-04-28 06:45 | 27.91030 | 76.62288 | 18937 ft | 390 kts | 222° |
| 2026-04-28 06:45 | 27.88937 | 76.60377 | 19318 ft | 393 kts | 222° |
| 2026-04-28 06:45 | 27.86804 | 76.58431 | 19724 ft | 396 kts | 222° |
| 2026-04-28 06:46 | 27.84656 | 76.56472 | 20114 ft | 398 kts | 222° |
| 2026-04-28 06:46 | 27.82491 | 76.54499 | 20499 ft | 401 kts | 221° |
| 2026-04-28 06:46 | 27.80301 | 76.52533 | 20903 ft | 404 kts | 220° |
| 2026-04-28 06:46 | 27.78018 | 76.50658 | 21283 ft | 408 kts | 218° |
| 2026-04-28 06:47 | 27.75666 | 76.48843 | 21680 ft | 411 kts | 217° |
| 2026-04-28 06:47 | 27.73273 | 76.47055 | 22063 ft | 414 kts | 216° |
| 2026-04-28 06:47 | 27.70850 | 76.45263 | 22462 ft | 417 kts | 216° |
| 2026-04-28 06:47 | 27.68417 | 76.43463 | 22853 ft | 420 kts | 216° |
| 2026-04-28 06:48 | 27.65970 | 76.41643 | 23238 ft | 423 kts | 216° |
| 2026-04-28 06:48 | 27.63515 | 76.39809 | 23582 ft | 425 kts | 216° |
| 2026-04-28 06:48 | 27.61039 | 76.37952 | 23927 ft | 428 kts | 216° |
| 2026-04-28 06:48 | 27.58554 | 76.36086 | 24284 ft | 430 kts | 216° |
| 2026-04-28 06:49 | 27.56061 | 76.34214 | 24657 ft | 432 kts | 216° |
| 2026-04-28 06:49 | 27.53550 | 76.32329 | 24998 ft | 435 kts | 216° |
| 2026-04-28 06:49 | 27.51023 | 76.30439 | 25375 ft | 437 kts | 215° |
| 2026-04-28 06:49 | 27.48447 | 76.28604 | 25731 ft | 440 kts | 214° |
| 2026-04-28 06:50 | 27.45822 | 76.26813 | 26128 ft | 442 kts | 213° |
| 2026-04-28 06:50 | 27.43178 | 76.25037 | 26480 ft | 444 kts | 213° |
| 2026-04-28 06:50 | 27.40556 | 76.23277 | 26833 ft | 446 kts | 213° |
| 2026-04-28 06:50 | 27.37883 | 76.21473 | 27158 ft | 450 kts | 213° |
| 2026-04-28 06:51 | 27.35200 | 76.19650 | 27466 ft | 452 kts | 213° |
| 2026-04-28 06:51 | 27.32501 | 76.17810 | 27804 ft | 455 kts | 213° |
| 2026-04-28 06:51 | 27.29792 | 76.15957 | 28125 ft | 457 kts | 213° |
| 2026-04-28 06:51 | 27.27072 | 76.14096 | 28437 ft | 459 kts | 213° |
| 2026-04-28 06:52 | 27.24340 | 76.12228 | 28793 ft | 461 kts | 213° |
| 2026-04-28 06:52 | 27.21593 | 76.10350 | 29105 ft | 463 kts | 213° |
| 2026-04-28 06:52 | 27.18831 | 76.08463 | 29406 ft | 466 kts | 213° |
| 2026-04-28 06:52 | 27.16054 | 76.06568 | 29705 ft | 468 kts | 213° |
| 2026-04-28 06:53 | 27.13266 | 76.04667 | 29986 ft | 470 kts | 213° |
| 2026-04-28 06:53 | 27.10467 | 76.02758 | 30241 ft | 472 kts | 213° |
| 2026-04-28 06:53 | 27.07657 | 76.00844 | 30487 ft | 473 kts | 213° |
| 2026-04-28 06:53 | 27.04840 | 75.98927 | 30773 ft | 474 kts | 213° |
| 2026-04-28 06:54 | 27.02025 | 75.97011 | 31058 ft | 474 kts | 213° |
| 2026-04-28 06:54 | 26.99200 | 75.95090 | 31292 ft | 476 kts | 213° |
| 2026-04-28 06:54 | 26.96364 | 75.93163 | 31511 ft | 477 kts | 213° |
| 2026-04-28 06:54 | 26.93521 | 75.91232 | 31728 ft | 479 kts | 214° |
| 2026-04-28 06:55 | 26.90667 | 75.89294 | 31946 ft | 480 kts | 214° |
| 2026-04-28 06:55 | 26.87806 | 75.87354 | 32153 ft | 481 kts | 214° |
| 2026-04-28 06:55 | 26.84938 | 75.85412 | 32432 ft | 481 kts | 214° |
| 2026-04-28 06:55 | 26.81966 | 75.83686 | 32732 ft | 483 kts | 206° |
| 2026-04-28 06:56 | 26.78869 | 75.82238 | 33028 ft | 483 kts | 205° |
| 2026-04-28 06:56 | 26.75745 | 75.80860 | 33302 ft | 482 kts | 204° |
| 2026-04-28 06:56 | 26.72608 | 75.79522 | 33561 ft | 482 kts | 204° |
| 2026-04-28 06:56 | 26.69472 | 75.78203 | 33830 ft | 481 kts | 204° |
| 2026-04-28 06:57 | 26.66333 | 75.76889 | 34039 ft | 481 kts | 204° |
| 2026-04-28 06:57 | 26.63202 | 75.75576 | 34226 ft | 481 kts | 205° |
| 2026-04-28 06:57 | 26.60070 | 75.74258 | 34393 ft | 482 kts | 205° |
| 2026-04-28 06:57 | 26.56933 | 75.72935 | 34555 ft | 482 kts | 205° |
| 2026-04-28 06:58 | 26.53841 | 75.71628 | 34724 ft | 482 kts | 205° |
| 2026-04-28 06:58 | 26.50701 | 75.70301 | 34883 ft | 482 kts | 205° |